NORTHERN NASSAU  -  Areal Flood Advisory Areal Flood Advisory     Special Weather Statement Special Weather Statement        NORTHERN QUEENS  -  Areal Flood Advisory Areal Flood Advisory        SOUTHERN NASSAU  -  Areal Flood Advisory Areal Flood Advisory     Special Weather Statement Special Weather Statement        SOUTHERN QUEENS  -  Areal Flood Advisory Areal Flood Advisory        NORTHEAST SUFFOLK  -  Special Weather Statement Special Weather Statement        NORTHWEST SUFFOLK  -  Special Weather Statement Special Weather Statement        SOUTHEAST SUFFOLK  -  Special Weather Statement Special Weather Statement        SOUTHWEST SUFFOLK  -  Special Weather Statement Special Weather Statement      

Active alerts

Northern Queens
  Details for Northern Queens Areal Flood Advisory
Southern Queens
  Details for Southern Queens Areal Flood Advisory
Northern Nassau
  Details for Northern Nassau Areal Flood Advisory  +1 additional alert
Southern Nassau
  Details for Southern Nassau Areal Flood Advisory  +1 additional alert
Northwest Suffolk
  Details for Northwest Suffolk Special Weather Statement
Southwest Suffolk
  Details for Southwest Suffolk Special Weather Statement
Northeast Suffolk
  Details for Northeast Suffolk Special Weather Statement
Southeast Suffolk
  Details for Southeast Suffolk Special Weather Statement


WXM80 ListenWXM80 Stop

You find our weather info also at:

UK Metoffice

WeatherCloud

Weather Underground

Northeastern Weather Network

AWEKAS

Citizen Weather Observer Program (CWOP)

HAMweather, WeatherForYou, PWS Weather


Weather Underground History page Text

Daily Summary for March 18, 2017 Units:  English    Metric   Both
« Previous Day
Next Day »
Daily Weekly Monthly Yearly Custom
  High: Low: Average:
Temperature: TemperatureF °F 27.0 °F 34.4 °F
Dew Point: DewpointF °F 20.5 °F 28.4 °F
Humidity: Humidity % 55 % 79 %
Wind Speed: WindSpeedMPH mph 0.0 mph 6.2 mph
Wind Gust: WindSpeedGustMPH mph - -
Wind:- - East
Pressure: PressureIn in 30.12 in -
Precipitation: 0.01 in    
Historical Graphs
 
 
Tabular Data for March 18, 2017
Time Temperature Dew Point Pressure Wind Wind Speed Wind Gust Humidity Rainfall Rate (Hourly)
TemperatureF °F DewpointF °F PressureIn in Calm     Humidity % HourlyPrecipIn in
00:01 35.1 °F 20.5 °F 30.21 in SW 2.2 mph 6.9 mph 55 % 0.00 in
00:06 35.1 °F 20.5 °F 30.21 in WSW 2.9 mph 6.9 mph 55 % 0.00 in
00:11 35.2 °F 20.6 °F 30.21 in SW 2.2 mph 3.5 mph 55 % 0.00 in
00:16 35.2 °F 21.1 °F 30.21 in WSW 2.0 mph 3.5 mph 56 % 0.00 in
00:21 35.3 °F 21.2 °F 30.20 in SW 2.4 mph 3.5 mph 56 % 0.00 in
00:26 35.2 °F 21.1 °F 30.20 in SW 1.5 mph 3.5 mph 56 % 0.00 in
00:31 35.2 °F 21.1 °F 30.20 in SW 2.0 mph 3.5 mph 56 % 0.00 in
00:36 35.2 °F 21.1 °F 30.20 in SW 2.2 mph 3.5 mph 56 % 0.00 in
00:41 35.1 °F 21.4 °F 30.21 in SSW 2.8 mph 4.6 mph 57 % 0.00 in
00:46 35.0 °F 21.3 °F 30.20 in SW 1.5 mph 3.5 mph 57 % 0.00 in
00:51 35.0 °F 20.9 °F 30.20 in SW 0.7 mph 2.3 mph 56 % 0.00 in
00:56 35.0 °F 20.9 °F 30.20 in SW 1.5 mph 3.5 mph 56 % 0.00 in
01:01 34.8 °F 21.5 °F 30.20 in SW 0.8 mph 3.5 mph 58 % 0.00 in
01:06 34.7 °F 21.0 °F 30.20 in SW 0.4 mph 2.3 mph 57 % 0.00 in
01:11 34.6 °F 21.3 °F 30.20 in SW 0.9 mph 1.2 mph 58 % 0.00 in
01:16 34.4 °F 21.1 °F 30.20 in SW 0.6 mph 2.0 mph 58 % 0.00 in
01:21 34.3 °F 21.4 °F 30.20 in WSW 0.3 mph 1.2 mph 59 % 0.00 in
01:26 34.2 °F 21.4 °F 30.20 in Calm   1.2 mph 59 % 0.00 in
01:31 34.0 °F 21.2 °F 30.20 in WSW 0.5 mph 1.2 mph 59 % 0.00 in
01:36 33.9 °F 21.5 °F 30.20 in WSW 0.3 mph 2.3 mph 60 % 0.00 in
01:41 33.7 °F 21.3 °F 30.20 in Calm     60 % 0.00 in
01:46 33.5 °F 21.9 °F 30.21 in Calm     62 % 0.00 in
01:51 33.3 °F 21.7 °F 30.21 in Calm     62 % 0.00 in
01:56 33.1 °F 21.9 °F 30.20 in Calm     63 % 0.00 in
02:01 32.8 °F 21.6 °F 30.21 in Calm     63 % 0.00 in
02:06 32.6 °F 22.1 °F 30.21 in WSW 0.4 mph 2.0 mph 65 % 0.00 in
02:11 32.1 °F 22.0 °F 30.21 in Calm     66 % 0.00 in
02:16 31.5 °F 21.8 °F 30.21 in Calm   1.2 mph 67 % 0.00 in
02:21 31.4 °F 22.7 °F 30.20 in Calm     70 % 0.00 in
02:26 31.3 °F 23.0 °F 30.21 in WSW 0.7 mph 1.2 mph 71 % 0.00 in
02:31 31.0 °F 23.7 °F 30.21 in WSW 1.2 mph 2.3 mph 74 % 0.00 in
02:36 31.0 °F 24.0 °F 30.21 in WSW 0.7 mph 2.3 mph 75 % 0.00 in
02:41 30.9 °F 23.9 °F 30.21 in Calm     75 % 0.00 in
02:46 30.8 °F 23.2 °F 30.20 in Calm     73 % 0.00 in
02:51 30.6 °F 23.0 °F 30.20 in WSW 0.6 mph 2.3 mph 73 % 0.00 in
02:52 30.7 °F 22.7 °F 30.20 in WSW 0.4 mph 2.3 mph 72 % 0.00 in
02:57 30.5 °F 22.9 °F 30.20 in Calm     73 % 0.00 in
03:02 30.4 °F 22.8 °F 30.20 in Calm     73 % 0.00 in
03:07 30.3 °F 23.0 °F 30.20 in Calm     74 % 0.00 in
03:12 30.1 °F 22.5 °F 30.20 in Calm     73 % 0.00 in
03:17 29.9 °F 22.6 °F 30.20 in Calm     74 % 0.00 in
03:22 29.7 °F 22.4 °F 30.19 in Calm     74 % 0.00 in
03:27 29.5 °F 22.6 °F 30.19 in Calm     75 % 0.00 in
03:32 29.3 °F 22.4 °F 30.19 in Calm     75 % 0.00 in
03:37 29.1 °F 22.2 °F 30.19 in Calm     75 % 0.00 in
03:42 28.9 °F 22.3 °F 30.19 in Calm     76 % 0.00 in
03:47 28.7 °F 22.1 °F 30.20 in Calm     76 % 0.00 in
03:52 28.4 °F 22.4 °F 30.19 in Calm     78 % 0.00 in
03:57 28.4 °F 22.7 °F 30.20 in Calm     79 % 0.00 in
04:02 28.4 °F 22.7 °F 30.19 in Calm     79 % 0.00 in
04:07 28.3 °F 22.6 °F 30.19 in Calm     79 % 0.00 in
04:12 28.1 °F 22.1 °F 30.19 in Calm     78 % 0.00 in
04:17 28.0 °F 22.0 °F 30.19 in Calm     78 % 0.00 in
04:22 27.9 °F 22.2 °F 30.18 in Calm     79 % 0.00 in
04:27 27.8 °F 22.4 °F 30.18 in Calm     80 % 0.00 in
04:32 27.7 °F 22.6 °F 30.18 in Calm     81 % 0.00 in
04:37 27.7 °F 22.9 °F 30.18 in Calm     82 % 0.00 in
04:42 27.7 °F 23.2 °F 30.19 in Calm     83 % 0.00 in
04:47 27.7 °F 23.5 °F 30.19 in Calm     84 % 0.00 in
04:53 27.8 °F 23.9 °F 30.19 in Calm     85 % 0.00 in
04:58 27.7 °F 23.8 °F 30.19 in Calm     85 % 0.00 in
05:03 27.7 °F 23.8 °F 30.18 in WSW 0.1 mph 1.2 mph 85 % 0.00 in
05:08 27.7 °F 24.1 °F 30.18 in Calm     86 % 0.00 in
05:13 27.7 °F 24.1 °F 30.18 in Calm   1.2 mph 86 % 0.00 in
05:18 27.7 °F 24.1 °F 30.19 in Calm     86 % 0.00 in
05:23 27.8 °F 24.4 °F 30.19 in Calm     87 % 0.00 in
05:28 27.8 °F 24.4 °F 30.19 in Calm     87 % 0.00 in
05:33 27.8 °F 24.4 °F 30.19 in Calm     87 % 0.00 in
05:38 27.8 °F 24.4 °F 30.19 in Calm     87 % 0.00 in
05:43 27.7 °F 24.3 °F 30.19 in Calm     87 % 0.00 in
05:53 27.5 °F 24.1 °F 30.19 in Calm     87 % 0.00 in
05:58 27.4 °F 24.0 °F 30.19 in Calm     87 % 0.00 in
06:03 27.3 °F 23.9 °F 30.20 in Calm     87 % 0.00 in
06:08 27.3 °F 24.2 °F 30.19 in Calm     88 % 0.00 in
06:13 27.2 °F 24.1 °F 30.19 in Calm     88 % 0.00 in
06:18 27.2 °F 24.1 °F 30.20 in Calm     88 % 0.00 in
06:23 27.1 °F 24.0 °F 30.20 in Calm     88 % 0.00 in
06:28 27.1 °F 24.0 °F 30.20 in Calm     88 % 0.00 in
06:33 27.0 °F 23.9 °F 30.19 in Calm     88 % 0.00 in
06:38 27.0 °F 23.9 °F 30.19 in WSW 0.3 mph 1.0 mph 88 % 0.00 in
06:43 27.0 °F 24.2 °F 30.19 in WSW 0.7 mph 1.2 mph 89 % 0.00 in
06:48 27.1 °F 24.3 °F 30.19 in Calm     89 % 0.00 in
06:54 27.1 °F 24.3 °F 30.19 in Calm     89 % 0.00 in
06:59 27.0 °F 24.2 °F 30.20 in Calm     89 % 0.00 in
07:04 27.1 °F 24.3 °F 30.20 in SW 1.0 mph 2.3 mph 89 % 0.00 in
07:09 27.3 °F 24.8 °F 30.20 in East 1.3 mph 2.3 mph 90 % 0.00 in
07:14 27.8 °F 25.2 °F 30.20 in ENE 3.2 mph 5.0 mph 90 % 0.00 in
07:19 29.2 °F 26.6 °F 30.20 in ENE 5.6 mph 7.0 mph 90 % 0.00 in
07:24 30.6 °F 27.5 °F 30.20 in ENE 8.1 mph 10.4 mph 88 % 0.00 in
07:29 32.0 °F 27.4 °F 30.20 in ENE 6.1 mph 9.2 mph 83 % 0.00 in
07:34 33.1 °F 27.0 °F 30.20 in NE 7.3 mph 10.0 mph 78 % 0.00 in
07:39 33.7 °F 26.0 °F 30.21 in NE 8.0 mph 11.5 mph 73 % 0.00 in
07:49 34.0 °F 25.6 °F 30.21 in East 6.8 mph 9.2 mph 71 % 0.00 in
07:54 34.0 °F 24.9 °F 30.21 in ENE 6.9 mph 11.5 mph 69 % 0.00 in
07:59 33.9 °F 24.4 °F 30.22 in ENE 6.6 mph 11.0 mph 68 % 0.00 in
08:04 33.9 °F 24.8 °F 30.21 in ENE 7.3 mph 11.5 mph 69 % 0.00 in
08:10 33.9 °F 25.1 °F 30.21 in ENE 9.5 mph 9.5 mph 70 % 0.00 in
08:15 33.9 °F 25.1 °F 30.22 in ENE 7.3 mph 11.5 mph 70 % 0.00 in
08:20 33.8 °F 25.0 °F 30.21 in ENE 7.1 mph 11.5 mph 70 % 0.00 in
08:25 33.8 °F 25.4 °F 30.21 in ENE 5.1 mph 8.1 mph 71 % 0.00 in
08:30 33.9 °F 25.8 °F 30.21 in ENE 6.9 mph 9.2 mph 72 % 0.00 in
08:35 33.9 °F 25.8 °F 30.21 in East 8.0 mph 11.5 mph 72 % 0.00 in
08:40 34.1 °F 26.3 °F 30.21 in ENE 4.9 mph 11.5 mph 73 % 0.00 in
08:45 34.2 °F 25.8 °F 30.21 in ENE 7.8 mph 9.2 mph 71 % 0.00 in
08:50 34.3 °F 25.5 °F 30.21 in East 5.6 mph 8.1 mph 70 % 0.00 in
08:55 34.5 °F 26.4 °F 30.21 in ENE 5.4 mph 8.1 mph 72 % 0.00 in
09:05 34.8 °F 26.4 °F 30.21 in East 4.9 mph 9.2 mph 71 % 0.00 in
09:10 35.0 °F 26.9 °F 30.21 in ENE 6.6 mph 9.2 mph 72 % 0.00 in
09:15 35.1 °F 27.0 °F 30.22 in East 6.7 mph 9.0 mph 72 % 0.00 in
09:20 35.2 °F 27.1 °F 30.21 in East 7.0 mph 9.2 mph 72 % 0.00 in
09:25 35.3 °F 27.5 °F 30.21 in East 8.2 mph 9.2 mph 73 % 0.00 in
09:30 35.4 °F 27.9 °F 30.21 in ENE 8.3 mph 9.2 mph 74 % 0.00 in
09:36 35.5 °F 28.4 °F 30.20 in ENE 6.7 mph 9.2 mph 75 % 0.00 in
09:41 35.6 °F 28.8 °F 30.20 in ENE 7.2 mph 9.0 mph 76 % 0.00 in
09:46 35.7 °F 28.9 °F 30.20 in ENE 8.0 mph 9.2 mph 76 % 0.00 in
09:51 35.7 °F 28.9 °F 30.20 in East 6.5 mph 9.2 mph 76 % 0.00 in
09:56 35.9 °F 28.7 °F 30.21 in East 7.4 mph 10.4 mph 75 % 0.00 in
10:01 36.0 °F 28.8 °F 30.21 in East 5.6 mph 8.1 mph 75 % 0.00 in
10:06 36.0 °F 28.5 °F 30.21 in East 7.7 mph 11.5 mph 74 % 0.00 in
10:11 36.0 °F 28.5 °F 30.22 in ENE 7.7 mph 9.2 mph 74 % 0.00 in
10:16 36.0 °F 28.8 °F 30.21 in East 8.1 mph 10.4 mph 75 % 0.00 in
10:21 36.1 °F 28.6 °F 30.21 in East 7.1 mph 10.4 mph 74 % 0.00 in
10:26 36.3 °F 28.8 °F 30.21 in ENE 6.9 mph 9.2 mph 74 % 0.00 in
10:31 36.4 °F 28.9 °F 30.21 in East 9.0 mph 12.7 mph 74 % 0.00 in
10:36 36.4 °F 29.2 °F 30.21 in East 9.2 mph 11.5 mph 75 % 0.00 in
10:41 36.4 °F 29.6 °F 30.20 in ENE 9.8 mph 11.5 mph 76 % 0.00 in
10:46 36.4 °F 29.6 °F 30.20 in ENE 8.1 mph 11.5 mph 76 % 0.00 in
10:51 36.4 °F 29.6 °F 30.20 in ENE 9.1 mph 12.7 mph 76 % 0.00 in
10:56 36.4 °F 29.6 °F 30.20 in ENE 8.8 mph 11.5 mph 76 % 0.00 in
11:01 36.5 °F 30.0 °F 30.19 in East 8.6 mph 11.5 mph 77 % 0.00 in
11:06 36.5 °F 29.7 °F 30.20 in ENE 8.1 mph 11.5 mph 76 % 0.00 in
11:11 36.7 °F 30.2 °F 30.20 in ENE 8.7 mph 13.0 mph 77 % 0.00 in
11:16 36.9 °F 30.0 °F 30.19 in ENE 10.2 mph 12.7 mph 76 % 0.00 in
11:21 37.4 °F 30.5 °F 30.19 in ENE 10.0 mph 13.8 mph 76 % 0.00 in
11:27 37.5 °F 30.3 °F 30.19 in ENE 9.0 mph 17.3 mph 75 % 0.00 in
11:32 37.3 °F 30.1 °F 30.19 in ENE 8.3 mph 11.5 mph 75 % 0.00 in
11:37 37.0 °F 30.1 °F 30.19 in ENE 10.7 mph 11.5 mph 76 % 0.00 in
11:42 36.7 °F 29.8 °F 30.19 in ENE 10.0 mph 13.8 mph 76 % 0.00 in
11:47 36.4 °F 29.9 °F 30.19 in ENE 8.9 mph 16.1 mph 77 % 0.00 in
11:52 36.2 °F 30.0 °F 30.19 in ENE 9.7 mph 11.5 mph 78 % 0.00 in
11:57 36.1 °F 29.9 °F 30.18 in East 9.2 mph 15.0 mph 78 % 0.00 in
12:02 36.0 °F 29.5 °F 30.18 in ENE 11.4 mph 13.0 mph 77 % 0.00 in
12:07 35.9 °F 29.7 °F 30.17 in East 11.5 mph 17.3 mph 78 % 0.00 in
12:17 36.0 °F 29.8 °F 30.18 in ENE 8.8 mph 13.8 mph 78 % 0.00 in
12:22 36.1 °F 30.2 °F 30.18 in East 10.0 mph 12.7 mph 79 % 0.00 in
12:27 36.2 °F 30.6 °F 30.18 in East 8.6 mph 10.4 mph 80 % 0.00 in
12:32 36.2 °F 30.3 °F 30.17 in ENE 9.4 mph 12.7 mph 79 % 0.00 in
12:37 36.4 °F 30.8 °F 30.17 in ENE 9.9 mph 13.8 mph 80 % 0.00 in
12:43 36.4 °F 30.8 °F 30.17 in ENE 9.6 mph 14.0 mph 80 % 0.00 in
12:48 36.5 °F 30.9 °F 30.17 in ENE 8.0 mph 12.0 mph 80 % 0.00 in
12:53 36.7 °F 31.4 °F 30.17 in East 8.0 mph 14.0 mph 81 % 0.00 in
12:58 36.8 °F 31.5 °F 30.17 in ENE 10.0 mph 11.5 mph 81 % 0.00 in
13:03 36.9 °F 31.6 °F 30.17 in East 10.0 mph 15.0 mph 81 % 0.00 in
13:08 37.0 °F 31.7 °F 30.17 in ENE 8.0 mph 12.0 mph 81 % 0.00 in
13:13 37.1 °F 31.8 °F 30.17 in ENE 10.0 mph 13.0 mph 81 % 0.00 in
13:18 37.1 °F 31.8 °F 30.16 in ENE 10.0 mph 14.0 mph 81 % 0.00 in
13:23 37.2 °F 31.9 °F 30.16 in ENE 9.0 mph 13.0 mph 81 % 0.00 in
13:28 37.3 °F 32.3 °F 30.16 in East 9.0 mph 13.0 mph 82 % 0.00 in
13:33 37.3 °F 32.0 °F 30.16 in ENE 9.0 mph 16.0 mph 81 % 0.00 in
13:38 37.3 °F 32.3 °F 30.15 in ENE 9.3 mph 12.7 mph 82 % 0.00 in
13:43 37.3 °F 32.3 °F 30.15 in ENE 12.3 mph 18.4 mph 82 % 0.00 in
13:48 37.3 °F 32.6 °F 30.15 in ENE 8.6 mph 11.5 mph 83 % 0.00 in
13:53 37.4 °F 32.7 °F 30.15 in ENE 8.1 mph 11.5 mph 83 % 0.00 in
13:58 37.3 °F 32.9 °F 30.15 in East 9.1 mph 11.5 mph 84 % 0.00 in
14:03 37.3 °F 32.9 °F 30.14 in East 10.4 mph 13.8 mph 84 % 0.00 in
14:08 37.2 °F 33.1 °F 30.13 in ENE 10.8 mph 13.0 mph 85 % 0.00 in
14:13 37.3 °F 33.5 °F 30.13 in East 9.1 mph 12.7 mph 86 % 0.00 in
14:18 37.4 °F 33.6 °F 30.14 in East 8.1 mph 10.0 mph 86 % 0.00 in
14:23 37.5 °F 33.7 °F 30.13 in ENE 9.2 mph 12.7 mph 86 % 0.00 in
14:28 37.5 °F 33.7 °F 30.13 in ENE 9.8 mph 13.0 mph 86 % 0.00 in
14:33 37.4 °F 33.6 °F 30.13 in ENE 8.6 mph 11.5 mph 86 % 0.00 in
14:38 37.4 °F 33.6 °F 30.13 in East 8.4 mph 11.5 mph 86 % 0.00 in
14:43 37.4 °F 33.6 °F 30.13 in ENE 7.9 mph 10.4 mph 86 % 0.00 in
14:49 37.5 °F 33.7 °F 30.13 in ENE 7.1 mph 10.4 mph 86 % 0.00 in
14:54 37.5 °F 33.7 °F 30.14 in East 7.4 mph 9.2 mph 86 % 0.00 in
14:58 37.6 °F 33.8 °F 30.13 in ENE 7.6 mph 10.4 mph 86 % 0.00 in
15:04 37.7 °F 33.9 °F 30.13 in East 7.2 mph 9.2 mph 86 % 0.00 in
15:09 37.8 °F 34.0 °F 30.14 in East 6.6 mph 7.0 mph 86 % 0.00 in
15:14 37.8 °F 33.7 °F 30.14 in ENE 7.3 mph 8.1 mph 85 % 0.00 in
15:15 37.8 °F 33.7 °F 30.14 in East 6.4 mph 9.2 mph 85 % 0.00 in
15:20 37.8 °F 33.7 °F 30.14 in ENE 6.6 mph 10.4 mph 85 % 0.00 in
15:25 37.8 °F 33.4 °F 30.14 in NE 7.2 mph 10.4 mph 84 % 0.00 in
15:30 37.8 °F 33.7 °F 30.14 in ENE 6.4 mph 9.0 mph 85 % 0.00 in
15:35 37.8 °F 33.4 °F 30.13 in ENE 7.5 mph 10.4 mph 84 % 0.00 in
15:40 37.8 °F 33.4 °F 30.13 in ENE 7.6 mph 10.4 mph 84 % 0.00 in
15:45 37.8 °F 33.4 °F 30.13 in ENE 8.1 mph 10.4 mph 84 % 0.00 in
15:50 37.8 °F 33.4 °F 30.13 in East 6.7 mph 9.2 mph 84 % 0.00 in
15:55 37.7 °F 33.0 °F 30.14 in ENE 8.5 mph 12.7 mph 83 % 0.00 in
16:00 37.7 °F 33.0 °F 30.14 in East 7.2 mph 11.5 mph 83 % 0.00 in
16:05 37.7 °F 32.7 °F 30.14 in ENE 6.3 mph 10.4 mph 82 % 0.00 in
16:10 37.6 °F 32.6 °F 30.13 in East 8.6 mph 11.5 mph 82 % 0.00 in
16:16 37.5 °F 32.5 °F 30.13 in ENE 6.4 mph 10.4 mph 82 % 0.00 in
16:21 37.5 °F 32.8 °F 30.14 in ENE 7.3 mph 10.4 mph 83 % 0.00 in
16:26 37.3 °F 32.9 °F 30.13 in ENE 8.0 mph 10.4 mph 84 % 0.00 in
16:31 37.2 °F 33.1 °F 30.13 in East 7.2 mph 10.4 mph 85 % 0.00 in
16:36 37.0 °F 32.9 °F 30.13 in East 8.1 mph 10.4 mph 85 % 0.00 in
16:41 36.8 °F 33.0 °F 30.13 in East 7.8 mph 10.4 mph 86 % 0.00 in
16:46 36.6 °F 33.1 °F 30.13 in East 7.1 mph 9.2 mph 87 % 0.00 in
16:51 36.5 °F 33.3 °F 30.13 in East 7.5 mph 11.5 mph 88 % 0.00 in
16:56 36.5 °F 33.6 °F 30.13 in ENE 7.6 mph 10.4 mph 89 % 0.00 in
17:01 36.4 °F 33.5 °F 30.14 in ENE 7.4 mph 11.5 mph 89 % 0.00 in
17:06 36.4 °F 33.5 °F 30.13 in East 6.7 mph 8.1 mph 89 % 0.00 in
17:11 36.3 °F 33.4 °F 30.14 in ENE 5.8 mph 8.1 mph 89 % 0.01 in
17:16 36.2 °F 33.3 °F 30.13 in East 7.5 mph 10.4 mph 89 % 0.01 in
17:21 36.2 °F 33.3 °F 30.13 in ESE 8.9 mph 12.0 mph 89 % 0.01 in
17:26 36.2 °F 33.5 °F 30.12 in East 8.2 mph 10.4 mph 90 % 0.01 in
17:31 36.2 °F 33.5 °F 30.12 in East 7.8 mph 10.4 mph 90 % 0.01 in
17:36 36.2 °F 33.3 °F 30.12 in East 8.6 mph 10.4 mph 89 % 0.01 in
17:41 36.3 °F 33.4 °F 30.12 in East 8.2 mph 11.5 mph 89 % 0.01 in
17:46 36.3 °F 33.4 °F 30.12 in ENE 8.8 mph 12.7 mph 89 % 0.01 in
17:51 36.3 °F 33.1 °F 30.13 in East 7.4 mph 11.5 mph 88 % 0.01 in
17:57 36.4 °F 33.2 °F 30.13 in ENE 9.3 mph 11.5 mph 88 % 0.01 in
18:02 36.4 °F 32.9 °F 30.14 in ENE 7.0 mph 13.8 mph 87 % 0.01 in
18:07 36.4 °F 32.9 °F 30.14 in ENE 7.6 mph 10.4 mph 87 % 0.01 in
18:12 36.4 °F 32.9 °F 30.14 in ENE 7.0 mph 8.1 mph 87 % 0.00 in
18:17 36.4 °F 32.6 °F 30.14 in ENE 7.8 mph 10.4 mph 86 % 0.00 in
18:22 36.4 °F 32.6 °F 30.14 in East 6.5 mph 9.2 mph 86 % 0.00 in
18:27 36.5 °F 32.4 °F 30.14 in ENE 6.4 mph 8.1 mph 85 % 0.00 in
18:32 36.6 °F 32.5 °F 30.14 in ENE 5.6 mph 8.1 mph 85 % 0.00 in
18:37 36.6 °F 32.2 °F 30.15 in ENE 5.2 mph 9.2 mph 84 % 0.00 in
18:42 36.7 °F 32.3 °F 30.15 in East 5.8 mph 8.0 mph 84 % 0.00 in
18:47 36.8 °F 32.1 °F 30.16 in ENE 7.3 mph 10.4 mph 83 % 0.00 in
18:52 36.8 °F 32.1 °F 30.16 in East 6.8 mph 10.4 mph 83 % 0.00 in
18:57 36.8 °F 31.8 °F 30.16 in NE 7.0 mph 9.2 mph 82 % 0.00 in
19:02 36.8 °F 31.8 °F 30.16 in ENE 6.3 mph 10.4 mph 82 % 0.00 in
19:07 36.8 °F 31.8 °F 30.16 in ENE 7.9 mph 9.2 mph 82 % 0.00 in
19:12 36.7 °F 31.7 °F 30.16 in ENE 8.4 mph 10.4 mph 82 % 0.00 in
19:17 36.6 °F 31.9 °F 30.16 in East 7.4 mph 11.5 mph 83 % 0.00 in
19:22 36.4 °F 31.7 °F 30.16 in ENE 9.6 mph 12.0 mph 83 % 0.00 in
19:27 36.3 °F 31.9 °F 30.16 in ENE 9.8 mph 13.8 mph 84 % 0.00 in
19:32 36.2 °F 31.8 °F 30.16 in ENE 10.0 mph 12.7 mph 84 % 0.00 in
19:37 36.1 °F 32.0 °F 30.16 in East 10.8 mph 15.0 mph 85 % 0.00 in
19:42 36.1 °F 32.0 °F 30.15 in East 11.6 mph 15.0 mph 85 % 0.00 in
19:47 36.1 °F 32.0 °F 30.15 in ENE 10.5 mph 13.8 mph 85 % 0.00 in
19:52 36.2 °F 32.1 °F 30.15 in ENE 10.2 mph 13.0 mph 85 % 0.00 in
20:01 36.4 °F 32.3 °F 30.15 in ENE 8.4 mph 10.4 mph 85 % 0.00 in
20:06 36.4 °F 32.3 °F 30.15 in East 12.7 mph 13.8 mph 85 % 0.00 in
20:11 36.5 °F 32.4 °F 30.14 in East 8.9 mph 12.7 mph 85 % 0.00 in
20:21 36.6 °F 32.5 °F 30.14 in ENE 10.4 mph 11.5 mph 85 % 0.00 in
20:26 36.7 °F 32.6 °F 30.14 in ENE 8.6 mph 11.5 mph 85 % 0.00 in
20:32 36.7 °F 32.9 °F 30.15 in East 10.1 mph 12.7 mph 86 % 0.00 in
20:37 36.8 °F 32.7 °F 30.15 in East 10.6 mph 15.0 mph 85 % 0.00 in
20:42 36.9 °F 32.8 °F 30.15 in ENE 8.8 mph 15.0 mph 85 % 0.00 in
20:47 37.0 °F 33.5 °F 30.15 in ENE 9.1 mph 15.0 mph 87 % 0.00 in
20:52 37.0 °F 33.5 °F 30.15 in ENE 11.7 mph 17.3 mph 87 % 0.00 in
20:57 37.0 °F 33.8 °F 30.15 in ENE 11.3 mph 16.1 mph 88 % 0.00 in
21:02 37.0 °F 33.5 °F 30.15 in ENE 10.7 mph 16.1 mph 87 % 0.00 in
21:12 37.0 °F 32.9 °F 30.15 in ENE 10.9 mph 17.3 mph 85 % 0.00 in
21:17 37.0 °F 32.9 °F 30.15 in East 11.1 mph 14.0 mph 85 % 0.00 in
21:22 37.0 °F 32.9 °F 30.15 in East 11.2 mph 14.0 mph 85 % 0.00 in
21:27 37.0 °F 32.9 °F 30.15 in East 9.3 mph 13.8 mph 85 % 0.00 in
21:32 36.9 °F 32.5 °F 30.15 in ENE 12.3 mph 17.3 mph 84 % 0.00 in
21:37 36.9 °F 32.2 °F 30.15 in East 11.7 mph 16.1 mph 83 % 0.00 in
21:42 36.9 °F 32.2 °F 30.14 in ENE 10.0 mph 15.0 mph 83 % 0.00 in
21:47 36.9 °F 32.2 °F 30.15 in East 9.4 mph 14.0 mph 83 % 0.00 in
21:52 36.9 °F 31.9 °F 30.15 in East 10.6 mph 13.8 mph 82 % 0.00 in
21:57 36.9 °F 31.9 °F 30.15 in East 10.3 mph 13.8 mph 82 % 0.00 in
22:02 36.9 °F 31.9 °F 30.14 in ENE 10.2 mph 16.1 mph 82 % 0.00 in
22:07 36.9 °F 31.6 °F 30.14 in ENE 10.1 mph 13.8 mph 81 % 0.00 in
22:12 36.9 °F 31.6 °F 30.14 in NE 9.8 mph 13.0 mph 81 % 0.00 in
22:17 36.9 °F 31.6 °F 30.14 in ENE 11.2 mph 15.0 mph 81 % 0.00 in
22:22 37.0 °F 31.7 °F 30.14 in East 9.7 mph 11.5 mph 81 % 0.00 in
22:27 36.9 °F 31.9 °F 30.14 in East 10.7 mph 18.4 mph 82 % 0.00 in
22:33 36.9 °F 31.9 °F 30.14 in East 13.2 mph 16.1 mph 82 % 0.00 in
22:38 36.8 °F 31.8 °F 30.14 in ENE 12.0 mph 17.0 mph 82 % 0.00 in
22:43 36.8 °F 31.8 °F 30.14 in ENE 12.0 mph 22.0 mph 82 % 0.00 in
22:48 36.7 °F 31.7 °F 30.15 in East 12.6 mph 15.0 mph 82 % 0.00 in
22:53 36.7 °F 31.7 °F 30.14 in ENE 10.0 mph 17.0 mph 82 % 0.00 in
22:58 36.6 °F 31.3 °F 30.14 in East 13.6 mph 18.4 mph 81 % 0.00 in
23:03 36.4 °F 31.1 °F 30.14 in ENE 11.9 mph 16.1 mph 81 % 0.00 in
23:08 36.4 °F 31.1 °F 30.14 in ENE 11.1 mph 18.0 mph 81 % 0.00 in
23:13 36.3 °F 31.0 °F 30.14 in East 12.1 mph 20.7 mph 81 % 0.00 in
23:18 36.2 °F 30.9 °F 30.14 in East 11.5 mph 15.0 mph 81 % 0.00 in
23:23 36.1 °F 30.8 °F 30.14 in East 13.1 mph 21.9 mph 81 % 0.00 in
23:26 36.0 °F 30.4 °F 30.14 in ENE 14.9 mph 19.6 mph 80 % 0.00 in
23:31 35.9 °F 30.3 °F 30.14 in East 14.5 mph 19.6 mph 80 % 0.00 in
23:36 35.9 °F 30.3 °F 30.14 in East 11.9 mph 19.6 mph 80 % 0.00 in
23:41 35.8 °F 30.2 °F 30.15 in ENE 13.3 mph 19.6 mph 80 % 0.00 in
23:46 35.8 °F 30.2 °F 30.14 in East 13.9 mph 18.4 mph 80 % 0.00 in
23:51 35.8 °F 30.8 °F 30.14 in ENE 13.8 mph 21.9 mph 82 % 0.00 in
Crab Meadow Weather
Compliments of Weather Underground - 3 mb

Script developed by  Jim McMurry - jmcmurry@mwt.net Adapted for the template by  Wim van der Kuil - Leuven-Template.eu

Heat Index: The heat index combines air temperature and dew point in an attempt to determine the human-perceived equivalent temperature - how hot it feels. The human body normally cools itself by sweating, which evaporates and carries heat away from the body. However, when the relative humidity is high the evaporation rate is reduced, so heat is removed from the body at a lower rate causing it to retain more heat than it would in dry air.